createdAt,value
2023-02-14T00:01:12.554Z,0.40
2023-02-14T00:03:40.079Z,0.49
2023-02-14T00:06:13.675Z,0.47
2023-02-14T00:08:44.280Z,0.53
2023-02-14T00:11:13.317Z,0.60
2023-02-14T00:13:40.073Z,0.63
2023-02-14T00:16:06.953Z,0.52
2023-02-14T00:18:52.289Z,0.38
2023-02-14T00:21:18.933Z,0.35
2023-02-14T00:23:45.393Z,0.41
2023-02-14T00:26:15.702Z,0.44
2023-02-14T00:28:42.436Z,0.51
2023-02-14T00:31:09.102Z,0.48
2023-02-14T00:33:35.717Z,0.52
2023-02-14T00:36:07.359Z,0.43
2023-02-14T00:38:34.833Z,0.44
2023-02-14T00:41:02.175Z,0.47
2023-02-14T00:43:29.101Z,0.55
2023-02-14T00:45:55.560Z,0.56
2023-02-14T00:48:22.118Z,0.55
2023-02-14T00:50:48.608Z,0.53
2023-02-14T00:53:15.812Z,0.56
2023-02-14T00:55:46.300Z,0.57
2023-02-14T00:58:13.039Z,0.40
2023-02-14T01:00:39.536Z,0.22
2023-02-14T01:03:06.002Z,0.21
2023-02-14T01:05:32.445Z,0.18
2023-02-14T01:07:58.924Z,0.10
2023-02-14T01:10:25.363Z,0.13
2023-02-14T01:12:51.893Z,0.12
2023-02-14T01:15:18.425Z,0.13
2023-02-14T01:17:44.955Z,0.10
2023-02-14T01:20:11.741Z,0.14
2023-02-14T01:22:38.764Z,0.16
2023-02-14T01:25:06.458Z,0.16
2023-02-14T01:27:33.440Z,0.21
2023-02-14T01:29:59.985Z,0.21
2023-02-14T01:32:26.539Z,0.18
2023-02-14T01:34:53.059Z,0.23
2023-02-14T01:37:19.555Z,0.23
2023-02-14T01:39:46.031Z,0.24
2023-02-14T01:42:12.551Z,0.27
2023-02-14T01:44:38.907Z,0.11
2023-02-14T01:47:10.759Z,0.10
2023-02-14T01:50:09.206Z,-0.06
2023-02-14T01:52:45.088Z,-0.05
2023-02-14T01:55:19.471Z,-0.12
2023-02-14T01:57:58.874Z,-0.31
2023-02-14T02:00:44.392Z,-0.23
2023-02-14T02:03:13.333Z,-0.19
2023-02-14T02:05:48.481Z,-0.16
2023-02-14T02:08:15.701Z,-0.15
2023-02-14T02:10:42.222Z,-0.11
2023-02-14T02:13:16.749Z,-0.10
2023-02-14T02:16:18.872Z,-0.07
2023-02-14T02:19:38.422Z,-0.23
2023-02-14T02:22:23.110Z,-0.24
2023-02-14T02:25:54.914Z,-0.17
2023-02-14T02:28:51.637Z,-0.25
2023-02-14T02:32:23.509Z,-0.28
2023-02-14T02:35:33.780Z,-0.42
2023-02-14T02:38:38.746Z,-0.52
2023-02-14T02:41:46.213Z,-0.45
2023-02-14T02:44:40.019Z,-0.44
2023-02-14T02:47:26.689Z,-0.35
2023-02-14T02:50:25.597Z,-0.42
2023-02-14T02:53:20.442Z,-0.35
2023-02-14T02:56:33.086Z,-0.43
2023-02-14T02:59:23.122Z,-0.41
2023-02-14T03:01:56.712Z,-0.41
2023-02-14T03:04:44.715Z,-0.30
2023-02-14T03:07:36.259Z,-0.23
2023-02-14T03:10:17.762Z,-0.27
2023-02-14T03:13:35.930Z,-0.30
2023-02-14T03:16:25.662Z,-0.38
2023-02-14T03:19:27.469Z,-0.26
2023-02-14T03:22:05.564Z,-0.18
2023-02-14T03:24:58.220Z,-0.16
2023-02-14T03:27:44.777Z,-0.34
2023-02-14T03:30:40.338Z,-0.43
2023-02-14T03:33:22.861Z,-0.44
2023-02-14T03:36:04.075Z,-0.39
2023-02-14T03:38:47.964Z,-0.40
2023-02-14T03:41:29.520Z,-0.49
2023-02-14T03:44:02.849Z,-0.58
2023-02-14T03:46:39.204Z,-0.55
2023-02-14T03:49:16.338Z,-0.52
2023-02-14T03:51:50.781Z,-0.53
2023-02-14T03:54:21.794Z,-0.50
2023-02-14T03:56:56.693Z,-0.47
2023-02-14T03:59:28.605Z,-0.44
2023-02-14T04:02:12.165Z,-0.49
2023-02-14T04:04:45.528Z,-0.40
2023-02-14T04:07:16.922Z,-0.39
2023-02-14T04:09:43.887Z,-0.41
2023-02-14T04:12:11.259Z,-0.53
2023-02-14T04:14:45.525Z,-0.52
2023-02-14T04:17:30.813Z,-0.53
2023-02-14T04:19:57.270Z,-0.59
2023-02-14T04:22:23.819Z,-0.58
2023-02-14T04:24:50.259Z,-0.62
2023-02-14T04:27:16.769Z,-0.66
2023-02-14T04:29:47.334Z,-0.73
2023-02-14T04:32:22.320Z,-0.82
2023-02-14T04:34:57.028Z,-0.70
2023-02-14T04:37:23.616Z,-0.60
2023-02-14T04:39:50.061Z,-0.53
2023-02-14T04:42:19.368Z,-0.57
2023-02-14T04:44:45.860Z,-0.67
2023-02-14T04:47:12.432Z,-0.86
2023-02-14T04:49:38.940Z,-0.75
2023-02-14T04:52:06.367Z,-0.69
2023-02-14T04:54:33.432Z,-0.65
2023-02-14T04:57:04.632Z,-0.61
2023-02-14T04:59:31.160Z,-0.49
2023-02-14T05:01:57.684Z,-0.52
2023-02-14T05:04:28.452Z,-0.51
2023-02-14T05:06:54.923Z,-0.46
2023-02-14T05:09:21.477Z,-0.52
2023-02-14T05:11:47.964Z,-0.47
2023-02-14T05:14:14.458Z,-0.64
2023-02-14T05:16:47.850Z,-0.62
2023-02-14T05:19:14.436Z,-0.57
2023-02-14T05:21:40.909Z,-0.56
2023-02-14T05:24:16.460Z,-0.60
2023-02-14T05:26:43.209Z,-0.59
2023-02-14T05:29:09.804Z,-0.55
2023-02-14T05:31:36.436Z,-0.53
2023-02-14T05:34:10.098Z,-0.57
2023-02-14T05:36:36.604Z,-0.52
2023-02-14T05:39:03.576Z,-0.55
2023-02-14T05:41:35.845Z,-0.61
2023-02-14T05:44:02.328Z,-0.67
2023-02-14T05:46:28.921Z,-0.62
2023-02-14T05:48:55.370Z,-0.54
2023-02-14T05:51:21.867Z,-0.55
2023-02-14T05:53:48.299Z,-0.55
2023-02-14T05:56:14.789Z,-0.48
2023-02-14T05:58:41.461Z,-0.46
2023-02-14T06:01:07.936Z,-0.44
2023-02-14T06:03:34.616Z,-0.43
2023-02-14T06:06:01.067Z,-0.38
2023-02-14T06:08:27.534Z,-0.54
2023-02-14T06:10:54.047Z,-0.74
2023-02-14T06:13:20.620Z,-0.75
2023-02-14T06:15:47.056Z,-0.67
2023-02-14T06:18:13.539Z,-0.59
2023-02-14T06:20:40.027Z,-0.53
2023-02-14T06:23:06.553Z,-0.52
2023-02-14T06:25:33.355Z,-0.49
2023-02-14T06:28:00.022Z,-0.44
2023-02-14T06:30:27.487Z,-0.50
2023-02-14T06:32:54.231Z,-0.57
2023-02-14T06:35:20.852Z,-0.75
2023-02-14T06:37:52.516Z,-0.73
2023-02-14T06:40:19.592Z,-0.68
2023-02-14T06:42:46.272Z,-0.66
2023-02-14T06:45:15.223Z,-0.55
2023-02-14T06:47:41.824Z,-0.52
2023-02-14T06:50:11.487Z,-0.53
2023-02-14T06:52:39.436Z,-0.73
2023-02-14T06:55:06.407Z,-0.71
2023-02-14T06:57:42.509Z,-0.65
2023-02-14T07:00:10.148Z,-0.70
2023-02-14T07:02:36.862Z,-0.75
2023-02-14T07:05:04.200Z,-0.89
2023-02-14T07:07:30.766Z,-0.89
2023-02-14T07:09:57.288Z,-0.76
2023-02-14T07:12:23.757Z,-0.72
2023-02-14T07:14:50.260Z,-0.70
2023-02-14T07:17:19.870Z,-0.65
2023-02-14T07:19:48.687Z,-0.57
2023-02-14T07:22:15.223Z,-0.49
2023-02-14T07:24:42.528Z,-0.43
2023-02-14T07:27:11.164Z,-0.43
2023-02-14T07:29:37.742Z,-0.47
2023-02-14T07:32:04.718Z,-0.58
2023-02-14T07:34:31.407Z,-0.72
2023-02-14T07:37:00.382Z,-0.68
2023-02-14T07:39:31.065Z,-0.69
2023-02-14T07:41:57.668Z,-0.67
2023-02-14T07:44:24.397Z,-0.71
2023-02-14T07:46:50.978Z,-0.68
2023-02-14T07:49:22.127Z,-0.70
2023-02-14T07:51:48.777Z,-0.69
2023-02-14T07:54:15.360Z,-0.67
2023-02-14T07:56:41.881Z,-0.61
2023-02-14T07:59:11.484Z,-0.62
2023-02-14T08:01:37.951Z,-0.63
2023-02-14T08:04:04.835Z,-0.67
2023-02-14T08:06:31.381Z,-0.55
2023-02-14T08:09:00.379Z,-0.59
2023-02-14T08:11:46.107Z,-0.52
2023-02-14T08:14:12.681Z,-0.59
2023-02-14T08:16:39.686Z,-0.60
2023-02-14T08:19:06.548Z,-0.51
2023-02-14T08:21:33.095Z,-0.39
2023-02-14T08:23:59.670Z,-0.22
2023-02-14T08:26:26.461Z,-0.06
2023-02-14T08:28:52.964Z,0.10
2023-02-14T08:31:36.481Z,0.24
2023-02-14T08:34:05.643Z,0.36
2023-02-14T08:36:33.254Z,0.48
2023-02-14T08:39:16.245Z,0.61
2023-02-14T08:41:50.173Z,0.69
2023-02-14T08:44:16.880Z,0.85
2023-02-14T08:46:43.673Z,1.02
2023-02-14T08:49:19.159Z,1.16
2023-02-14T08:51:45.927Z,1.31
2023-02-14T08:54:12.709Z,1.32
2023-02-14T08:56:42.309Z,1.37
2023-02-14T08:59:08.792Z,1.41
2023-02-14T09:01:36.539Z,1.34
2023-02-14T09:04:03.739Z,1.38
2023-02-14T09:06:30.291Z,1.33
2023-02-14T09:09:00.874Z,1.32
2023-02-14T09:11:28.731Z,1.29
2023-02-14T09:13:55.275Z,1.25
2023-02-14T09:16:23.442Z,1.35
2023-02-14T09:18:51.627Z,1.41
2023-02-14T09:21:25.868Z,1.44
2023-02-14T09:23:53.318Z,1.55
2023-02-14T09:26:20.542Z,1.57
2023-02-14T09:28:47.800Z,1.62
2023-02-14T09:31:19.224Z,1.72
2023-02-14T09:34:06.497Z,1.83
2023-02-14T09:36:32.990Z,1.62
2023-02-14T09:38:59.545Z,1.80
2023-02-14T09:41:40.640Z,1.81
2023-02-14T09:44:47.080Z,1.76
2023-02-14T09:48:14.005Z,1.78
2023-02-14T09:50:57.256Z,1.71
2023-02-14T09:53:34.499Z,1.82
2023-02-14T09:56:07.332Z,1.84
2023-02-14T09:58:46.198Z,1.88
2023-02-14T10:01:22.275Z,1.95
2023-02-14T10:04:21.154Z,1.86
2023-02-14T10:06:58.216Z,1.95
2023-02-14T10:09:54.247Z,2.04
2023-02-14T10:12:46.045Z,2.18
2023-02-14T10:15:45.594Z,2.37
2023-02-14T10:18:27.843Z,2.43
2023-02-14T10:21:01.895Z,2.44
2023-02-14T10:23:46.664Z,2.54
2023-02-14T10:26:24.826Z,2.61
2023-02-14T10:28:51.879Z,2.54
2023-02-14T10:31:31.722Z,2.57
2023-02-14T10:34:21.132Z,2.59
2023-02-14T10:37:01.453Z,2.66
2023-02-14T10:40:17.436Z,2.71
2023-02-14T10:43:05.221Z,2.80
2023-02-14T10:45:47.508Z,2.85
2023-02-14T10:49:02.110Z,2.99
2023-02-14T10:51:47.655Z,3.11
2023-02-14T10:54:39.825Z,3.36
2023-02-14T10:57:22.471Z,3.51
2023-02-14T11:00:10.778Z,3.52
2023-02-14T11:02:46.312Z,3.55
2023-02-14T11:05:38.260Z,3.65
2023-02-14T11:08:35.430Z,3.73
2023-02-14T11:11:19.875Z,3.87
2023-02-14T11:13:46.705Z,3.84
2023-02-14T11:16:33.090Z,3.73
2023-02-14T11:19:14.654Z,3.74
2023-02-14T11:21:46.715Z,3.91
2023-02-14T11:24:29.006Z,4.03
2023-02-14T11:27:11.906Z,4.25
2023-02-14T11:29:41.283Z,4.28
2023-02-14T11:32:10.684Z,4.37
2023-02-14T11:34:57.857Z,4.31
2023-02-14T11:37:31.406Z,4.09
2023-02-14T11:40:01.164Z,4.28
2023-02-14T11:42:46.457Z,4.48
2023-02-14T11:45:40.259Z,4.55
2023-02-14T11:48:12.591Z,4.54
2023-02-14T11:50:40.376Z,4.66
2023-02-14T11:53:12.964Z,4.66
2023-02-14T11:55:40.959Z,4.70
2023-02-14T11:58:29.374Z,4.73
2023-02-14T12:00:56.029Z,4.91
2023-02-14T12:03:23.570Z,5.01
2023-02-14T12:05:53.837Z,5.12
2023-02-14T12:08:28.684Z,5.08
2023-02-14T12:11:06.474Z,5.16
2023-02-14T12:13:33.588Z,5.31
2023-02-14T12:16:00.898Z,5.53
2023-02-14T12:18:56.366Z,5.66
2023-02-14T12:21:44.079Z,5.78
2023-02-14T12:24:25.594Z,5.88
2023-02-14T12:27:19.956Z,6.04
2023-02-14T12:30:15.449Z,6.17
2023-02-14T12:32:50.564Z,6.23
2023-02-14T12:35:45.561Z,6.30
2023-02-14T12:38:37.732Z,6.45
2023-02-14T12:41:40.099Z,6.50
2023-02-14T12:44:27.792Z,6.50
2023-02-14T12:47:36.192Z,6.60
2023-02-14T12:50:43.041Z,6.57
2023-02-14T12:53:40.898Z,6.60
2023-02-14T12:56:19.571Z,6.62
2023-02-14T12:59:28.516Z,6.58
2023-02-14T13:02:55.150Z,6.46
2023-02-14T13:05:52.298Z,6.65
2023-02-14T13:08:34.262Z,6.59
2023-02-14T13:11:36.623Z,6.74
2023-02-14T13:14:50.752Z,7.04
2023-02-14T13:17:37.304Z,7.09
2023-02-14T13:20:36.804Z,6.99
2023-02-14T13:23:11.933Z,7.10
2023-02-14T13:25:50.327Z,7.19
2023-02-14T13:28:19.973Z,7.29
2023-02-14T13:30:46.691Z,7.27
2023-02-14T13:33:40.156Z,7.26
2023-02-14T13:36:12.240Z,7.21
2023-02-14T13:38:47.946Z,7.39
2023-02-14T13:41:17.066Z,7.40
2023-02-14T13:44:00.149Z,7.41
2023-02-14T13:46:32.825Z,7.28
2023-02-14T13:49:28.065Z,7.26
2023-02-14T13:51:59.584Z,7.41
2023-02-14T13:54:48.035Z,7.30
2023-02-14T13:57:36.895Z,7.38
2023-02-14T14:00:21.603Z,7.33
2023-02-14T14:02:54.527Z,7.35
2023-02-14T14:05:29.982Z,7.37
2023-02-14T14:08:21.315Z,7.45
2023-02-14T14:10:49.058Z,7.51
2023-02-14T14:13:40.473Z,7.56
2023-02-14T14:16:28.483Z,7.54
2023-02-14T14:19:17.086Z,7.43
2023-02-14T14:22:00.128Z,7.51
2023-02-14T14:24:30.966Z,7.54
2023-02-14T14:27:02.872Z,7.62
2023-02-14T14:29:40.878Z,7.61
2023-02-14T14:32:18.177Z,7.54
2023-02-14T14:34:58.379Z,7.62
2023-02-14T14:37:33.316Z,7.65
2023-02-14T14:40:08.247Z,7.68
2023-02-14T14:42:40.003Z,7.68
2023-02-14T14:45:23.863Z,7.65
2023-02-14T14:47:55.053Z,7.65
2023-02-14T14:50:32.777Z,7.67
2023-02-14T14:53:05.190Z,7.57
2023-02-14T14:55:36.813Z,7.58
2023-02-14T14:58:10.879Z,7.61
2023-02-14T15:00:42.475Z,7.58
2023-02-14T15:03:11.960Z,7.60
2023-02-14T15:05:42.860Z,7.60
2023-02-14T15:08:24.586Z,7.56
2023-02-14T15:11:10.851Z,7.43
2023-02-14T15:13:53.352Z,7.44
2023-02-14T15:16:40.209Z,7.39
2023-02-14T15:19:21.659Z,7.18
2023-02-14T15:21:48.445Z,7.19
2023-02-14T15:24:18.348Z,7.24
2023-02-14T15:26:48.802Z,7.19
2023-02-14T15:29:29.223Z,7.08
2023-02-14T15:32:03.357Z,6.99
2023-02-14T15:34:38.726Z,7.07
2023-02-14T15:37:07.258Z,7.11
2023-02-14T15:39:43.086Z,7.00
2023-02-14T15:42:32.345Z,6.81
2023-02-14T15:45:22.687Z,6.65
2023-02-14T15:47:56.279Z,6.49
2023-02-14T15:50:28.109Z,6.44
2023-02-14T15:53:03.242Z,6.42
2023-02-14T15:55:32.514Z,6.43
2023-02-14T15:58:29.087Z,6.37
2023-02-14T16:00:56.295Z,6.35
2023-02-14T16:03:26.941Z,6.31
2023-02-14T16:05:57.463Z,6.27
2023-02-14T16:08:39.021Z,6.27
2023-02-14T16:11:14.330Z,6.26
2023-02-14T16:13:44.947Z,6.23
2023-02-14T16:16:15.285Z,6.19
2023-02-14T16:18:49.981Z,6.12
2023-02-14T16:21:21.418Z,5.96
2023-02-14T16:24:07.906Z,5.85
2023-02-14T16:26:39.140Z,5.81
2023-02-14T16:29:17.290Z,5.78
2023-02-14T16:32:14.060Z,5.71
2023-02-14T16:34:36.132Z,5.61
2023-02-14T16:37:18.226Z,5.56
2023-02-14T16:39:45.140Z,5.55
2023-02-14T16:42:17.486Z,5.42
2023-02-14T16:44:45.695Z,5.34
2023-02-14T16:47:15.290Z,5.23
2023-02-14T16:49:42.015Z,5.14
2023-02-14T16:52:20.678Z,5.12
2023-02-14T16:54:48.300Z,5.12
2023-02-14T16:57:42.728Z,4.85
2023-02-14T17:00:10.152Z,4.81
2023-02-14T17:02:37.528Z,4.74
2023-02-14T17:05:04.969Z,4.70
2023-02-14T17:07:33.411Z,4.64
2023-02-14T17:10:07.732Z,4.49
2023-02-14T17:12:41.694Z,4.31
2023-02-14T17:15:16.481Z,4.21
2023-02-14T17:17:44.723Z,4.25
2023-02-14T17:20:13.804Z,4.19
2023-02-14T17:22:42.445Z,4.13
2023-02-14T17:25:09.529Z,4.04
2023-02-14T17:27:36.047Z,4.01
2023-02-14T17:30:02.687Z,3.94
2023-02-14T17:32:29.389Z,4.00
2023-02-14T17:34:56.416Z,3.94
2023-02-14T17:37:23.027Z,3.83
2023-02-14T17:39:49.732Z,3.80
2023-02-14T17:42:16.252Z,3.75
2023-02-14T17:44:42.818Z,3.68
2023-02-14T17:47:09.314Z,3.63
2023-02-14T17:49:35.814Z,3.53
2023-02-14T17:52:02.417Z,3.41
2023-02-14T17:54:28.930Z,3.38
2023-02-14T17:57:00.645Z,3.25
2023-02-14T17:59:27.166Z,3.22
2023-02-14T18:01:53.647Z,3.10
2023-02-14T18:04:20.301Z,3.02
2023-02-14T18:06:46.858Z,2.95
2023-02-14T18:09:13.949Z,2.95
2023-02-14T18:11:42.198Z,2.92
2023-02-14T18:14:09.313Z,2.87
2023-02-14T18:16:39.279Z,2.88
2023-02-14T18:19:07.170Z,2.95
2023-02-14T18:21:36.726Z,2.86
2023-02-14T18:24:04.102Z,2.83
2023-02-14T18:26:30.997Z,2.84
2023-02-14T18:28:58.421Z,2.77
2023-02-14T18:31:26.610Z,2.77
2023-02-14T18:33:53.205Z,2.75
2023-02-14T18:36:24.193Z,2.66
2023-02-14T18:38:50.804Z,2.66
2023-02-14T18:41:19.658Z,2.61
2023-02-14T18:43:46.465Z,2.53
2023-02-14T18:46:23.767Z,2.34
2023-02-14T18:48:50.903Z,2.10
2023-02-14T18:51:30.935Z,1.91
2023-02-14T18:53:59.880Z,1.84
2023-02-14T18:56:31.306Z,1.73
2023-02-14T18:59:05.128Z,1.75
2023-02-14T19:01:39.377Z,1.70
2023-02-14T19:04:08.821Z,1.63
2023-02-14T19:06:36.546Z,1.57
2023-02-14T19:09:08.501Z,1.48
2023-02-14T19:11:34.934Z,1.38
2023-02-14T19:14:08.287Z,1.49
2023-02-14T19:16:36.719Z,1.49
2023-02-14T19:19:04.965Z,1.36
2023-02-14T19:21:34.766Z,1.38
2023-02-14T19:24:03.876Z,1.28
2023-02-14T19:26:34.824Z,1.35
2023-02-14T19:29:12.014Z,1.28
2023-02-14T19:31:42.923Z,1.14
2023-02-14T19:34:23.048Z,0.92
2023-02-14T19:36:52.530Z,1.02
2023-02-14T19:39:21.065Z,1.07
2023-02-14T19:41:47.884Z,0.94
2023-02-14T19:44:16.944Z,0.84
2023-02-14T19:46:46.178Z,0.71
2023-02-14T19:49:16.915Z,0.78
2023-02-14T19:51:45.694Z,0.80
2023-02-14T19:54:12.881Z,0.67
2023-02-14T19:56:46.333Z,0.59
2023-02-14T19:59:19.511Z,0.70
2023-02-14T20:01:50.788Z,0.66
2023-02-14T20:04:25.532Z,0.57
2023-02-14T20:06:53.263Z,0.58
2023-02-14T20:09:21.788Z,0.44
2023-02-14T20:11:56.340Z,0.37
2023-02-14T20:14:31.430Z,0.30
2023-02-14T20:17:03.708Z,0.35
2023-02-14T20:19:36.892Z,0.35
2023-02-14T20:22:03.770Z,0.43
2023-02-14T20:24:32.362Z,0.33
2023-02-14T20:27:00.410Z,0.25
2023-02-14T20:29:27.223Z,0.16
2023-02-14T20:32:01.348Z,0.02
2023-02-14T20:34:27.928Z,-0.03
2023-02-14T20:36:55.768Z,0.00
2023-02-14T20:39:29.298Z,0.08
2023-02-14T20:41:55.772Z,0.11
2023-02-14T20:44:22.791Z,0.13
2023-02-14T20:46:52.711Z,0.23
2023-02-14T20:49:22.394Z,0.27
2023-02-14T20:51:51.587Z,0.29
2023-02-14T20:54:20.763Z,0.12
2023-02-14T20:56:48.475Z,-0.04
2023-02-14T20:59:15.035Z,-0.19
2023-02-14T21:01:41.629Z,-0.13
2023-02-14T21:04:08.474Z,0.00
2023-02-14T21:06:38.975Z,-0.08
2023-02-14T21:09:06.493Z,-0.19
2023-02-14T21:11:33.048Z,-0.09
2023-02-14T21:14:01.856Z,-0.07
2023-02-14T21:16:30.087Z,-0.07
2023-02-14T21:18:59.534Z,-0.08
2023-02-14T21:21:36.144Z,-0.13
2023-02-14T21:24:06.628Z,-0.51
2023-02-14T21:26:33.514Z,-0.39
2023-02-14T21:29:01.487Z,-0.37
2023-02-14T21:31:28.228Z,-0.35
2023-02-14T21:33:58.441Z,-0.25
2023-02-14T21:36:29.415Z,-0.14
2023-02-14T21:38:58.334Z,-0.08
2023-02-14T21:41:30.675Z,-0.20
2023-02-14T21:43:59.510Z,-0.22
2023-02-14T21:46:31.053Z,-0.23
2023-02-14T21:49:19.121Z,-0.28
2023-02-14T21:51:47.205Z,-0.32
2023-02-14T21:54:15.104Z,-0.35
2023-02-14T21:56:42.396Z,-0.40
2023-02-14T21:59:10.067Z,-0.37
2023-02-14T22:01:40.271Z,-0.31
2023-02-14T22:04:09.628Z,-0.32
2023-02-14T22:06:39.757Z,-0.39
2023-02-14T22:09:07.370Z,-0.40
2023-02-14T22:11:34.793Z,-0.57
2023-02-14T22:14:01.301Z,-0.51
2023-02-14T22:16:28.552Z,-0.52
2023-02-14T22:18:55.278Z,-0.53
2023-02-14T22:21:26.734Z,-0.47
2023-02-14T22:23:55.144Z,-0.42
2023-02-14T22:26:29.813Z,-0.45
2023-02-14T22:28:59.365Z,-0.41
2023-02-14T22:31:29.200Z,-0.40
2023-02-14T22:33:56.509Z,-0.39
2023-02-14T22:36:23.473Z,-0.37
2023-02-14T22:38:50.032Z,-0.50
2023-02-14T22:41:24.548Z,-0.57
2023-02-14T22:43:53.142Z,-0.60
2023-02-14T22:46:27.402Z,-0.59
2023-02-14T22:48:55.692Z,-0.47
2023-02-14T22:51:34.985Z,-0.45
2023-02-14T22:54:05.741Z,-0.44
2023-02-14T22:56:38.633Z,-0.57
2023-02-14T22:59:13.109Z,-0.64
2023-02-14T23:01:40.021Z,-0.55
2023-02-14T23:04:07.288Z,-0.53
2023-02-14T23:06:36.488Z,-0.63
2023-02-14T23:09:09.446Z,-0.72
2023-02-14T23:11:39.559Z,-0.64
2023-02-14T23:14:25.268Z,-0.58
2023-02-14T23:17:10.568Z,-0.72
2023-02-14T23:19:58.949Z,-0.86
2023-02-14T23:22:35.996Z,-0.84
2023-02-14T23:25:08.054Z,-0.79
2023-02-14T23:27:40.355Z,-0.81
2023-02-14T23:30:10.177Z,-0.87
2023-02-14T23:32:36.890Z,-0.92
2023-02-14T23:35:03.714Z,-0.94
2023-02-14T23:37:30.181Z,-0.98
2023-02-14T23:39:56.704Z,-0.89
2023-02-14T23:42:23.209Z,-0.89
2023-02-14T23:44:49.795Z,-0.95
2023-02-14T23:47:16.662Z,-1.05
2023-02-14T23:49:45.701Z,-1.02
2023-02-14T23:52:13.577Z,-0.92
2023-02-14T23:54:40.479Z,-0.85
2023-02-14T23:57:08.633Z,-0.83
2023-02-14T23:59:35.608Z,-0.77
